Terminal Aerodrome Forecast
Issued by NWS Shreveport, LA

Home | Current Version | Previous Version | Text Only | Print | Product List | Glossary On
Versions: 1 2 3 4 5 6 7 8 9 10 11 12 13 14 15 16 17
000
FTUS44 KSHV 220500 RRA
TAFTYR
TAF
KTYR 220551Z 2206/2306 15014G18KT P6SM VCSH SCT012 OVC025
      TEMPO 2207/2209 15012KT 5SM -RA BR OVC015
     FM221000 15011KT P6SM OVC015
     FM221200 13010KT 5SM BR OVC007
     FM221400 14011KT P6SM BKN015 OVC025
     FM221800 15010KT P6SM OVC050
     FM230000 13008KT 4SM BR OVC007
     FM230300 14009KT 3SM -RA BR OVC007=

USA.gov is the U.S. government's official web portal to all federal, state and local government web resources and services.